sensor_id;sensor_type;location;lat;lon;timestamp;temperature;humidity
58469;DHT22;44257;44.804;10.220;2023-12-14T00:01:22;6.10;99.90
58469;DHT22;44257;44.804;10.220;2023-12-14T00:03:48;6.00;99.90
58469;DHT22;44257;44.804;10.220;2023-12-14T00:06:14;6.00;99.90
58469;DHT22;44257;44.804;10.220;2023-12-14T00:08:40;6.00;99.90
58469;DHT22;44257;44.804;10.220;2023-12-14T00:11:07;6.10;99.90
58469;DHT22;44257;44.804;10.220;2023-12-14T00:13:33;6.10;99.90
58469;DHT22;44257;44.804;10.220;2023-12-14T00:16:00;6.20;99.90
58469;DHT22;44257;44.804;10.220;2023-12-14T00:18:26;6.20;99.90
58469;DHT22;44257;44.804;10.220;2023-12-14T00:20:52;6.30;99.90
58469;DHT22;44257;44.804;10.220;2023-12-14T00:23:19;6.30;99.90
58469;DHT22;44257;44.804;10.220;2023-12-14T00:25:45;6.40;99.90
58469;DHT22;44257;44.804;10.220;2023-12-14T00:28:11;6.40;99.90
58469;DHT22;44257;44.804;10.220;2023-12-14T00:30:37;6.40;99.90
58469;DHT22;44257;44.804;10.220;2023-12-14T00:33:03;6.50;99.90
58469;DHT22;44257;44.804;10.220;2023-12-14T00:35:29;6.60;99.90
58469;DHT22;44257;44.804;10.220;2023-12-14T00:37:55;6.60;99.90
58469;DHT22;44257;44.804;10.220;2023-12-14T00:40:20;6.60;99.90
58469;DHT22;44257;44.804;10.220;2023-12-14T00:42:46;6.70;99.90
58469;DHT22;44257;44.804;10.220;2023-12-14T00:45:12;6.70;99.90
58469;DHT22;44257;44.804;10.220;2023-12-14T00:47:38;6.70;99.90
58469;DHT22;44257;44.804;10.220;2023-12-14T00:50:04;6.70;99.90
58469;DHT22;44257;44.804;10.220;2023-12-14T00:52:30;6.70;99.90
58469;DHT22;44257;44.804;10.220;2023-12-14T00:54:56;6.70;99.90
58469;DHT22;44257;44.804;10.220;2023-12-14T00:57:22;6.80;99.90
58469;DHT22;44257;44.804;10.220;2023-12-14T00:59:48;6.80;99.90
58469;DHT22;44257;44.804;10.220;2023-12-14T01:02:13;6.80;99.90
58469;DHT22;44257;44.804;10.220;2023-12-14T01:04:39;6.80;99.90
58469;DHT22;44257;44.804;10.220;2023-12-14T01:07:05;6.80;99.90
58469;DHT22;44257;44.804;10.220;2023-12-14T01:09:31;6.80;99.90
58469;DHT22;44257;44.804;10.220;2023-12-14T01:11:57;6.80;99.90
58469;DHT22;44257;44.804;10.220;2023-12-14T01:14:22;6.80;99.90
58469;DHT22;44257;44.804;10.220;2023-12-14T01:16:49;6.80;99.90
58469;DHT22;44257;44.804;10.220;2023-12-14T01:19:14;6.80;99.90
58469;DHT22;44257;44.804;10.220;2023-12-14T01:21:41;6.80;99.90
58469;DHT22;44257;44.804;10.220;2023-12-14T01:24:06;6.80;99.90
58469;DHT22;44257;44.804;10.220;2023-12-14T01:26:32;6.80;99.90
58469;DHT22;44257;44.804;10.220;2023-12-14T01:28:58;6.80;99.90
58469;DHT22;44257;44.804;10.220;2023-12-14T01:31:25;6.90;99.90
58469;DHT22;44257;44.804;10.220;2023-12-14T01:33:51;6.80;99.90
58469;DHT22;44257;44.804;10.220;2023-12-14T01:36:25;6.80;99.90
58469;DHT22;44257;44.804;10.220;2023-12-14T01:38:51;6.90;99.90
58469;DHT22;44257;44.804;10.220;2023-12-14T01:41:17;6.90;99.90
58469;DHT22;44257;44.804;10.220;2023-12-14T01:43:44;6.90;99.90
58469;DHT22;44257;44.804;10.220;2023-12-14T01:46:10;6.90;99.90
58469;DHT22;44257;44.804;10.220;2023-12-14T01:48:36;6.90;99.90
58469;DHT22;44257;44.804;10.220;2023-12-14T01:51:03;6.90;99.90
58469;DHT22;44257;44.804;10.220;2023-12-14T01:53:28;7.00;99.90
58469;DHT22;44257;44.804;10.220;2023-12-14T01:55:54;7.00;99.90
58469;DHT22;44257;44.804;10.220;2023-12-14T01:58:20;7.00;99.90
58469;DHT22;44257;44.804;10.220;2023-12-14T02:03:46;7.00;99.90
58469;DHT22;44257;44.804;10.220;2023-12-14T02:06:14;7.00;99.90
58469;DHT22;44257;44.804;10.220;2023-12-14T02:08:40;7.00;99.90
58469;DHT22;44257;44.804;10.220;2023-12-14T02:11:06;7.00;99.90
58469;DHT22;44257;44.804;10.220;2023-12-14T02:13:33;7.00;99.90
58469;DHT22;44257;44.804;10.220;2023-12-14T02:15:59;7.10;99.90
58469;DHT22;44257;44.804;10.220;2023-12-14T02:18:25;7.10;99.90
58469;DHT22;44257;44.804;10.220;2023-12-14T02:20:51;7.10;99.90
58469;DHT22;44257;44.804;10.220;2023-12-14T02:23:17;7.10;99.90
58469;DHT22;44257;44.804;10.220;2023-12-14T02:25:43;7.10;99.90
58469;DHT22;44257;44.804;10.220;2023-12-14T02:28:09;7.10;99.90
58469;DHT22;44257;44.804;10.220;2023-12-14T02:30:35;7.20;99.90
58469;DHT22;44257;44.804;10.220;2023-12-14T02:33:02;7.20;99.90
58469;DHT22;44257;44.804;10.220;2023-12-14T02:35:28;7.20;99.90
58469;DHT22;44257;44.804;10.220;2023-12-14T02:37:54;7.20;99.90
58469;DHT22;44257;44.804;10.220;2023-12-14T02:40:20;7.20;99.90
58469;DHT22;44257;44.804;10.220;2023-12-14T02:42:46;7.20;99.90
58469;DHT22;44257;44.804;10.220;2023-12-14T02:45:11;7.20;99.90
58469;DHT22;44257;44.804;10.220;2023-12-14T02:47:37;7.20;99.90
58469;DHT22;44257;44.804;10.220;2023-12-14T02:50:04;7.30;99.90
58469;DHT22;44257;44.804;10.220;2023-12-14T02:52:30;7.30;99.90
58469;DHT22;44257;44.804;10.220;2023-12-14T02:54:56;7.30;99.90
58469;DHT22;44257;44.804;10.220;2023-12-14T02:57:21;7.30;99.90
58469;DHT22;44257;44.804;10.220;2023-12-14T02:59:47;7.30;99.90
58469;DHT22;44257;44.804;10.220;2023-12-14T03:02:13;7.30;99.90
58469;DHT22;44257;44.804;10.220;2023-12-14T03:04:39;7.30;99.90
58469;DHT22;44257;44.804;10.220;2023-12-14T03:07:08;7.40;99.90
58469;DHT22;44257;44.804;10.220;2023-12-14T03:09:34;7.30;99.90
58469;DHT22;44257;44.804;10.220;2023-12-14T03:12:00;7.30;99.90
58469;DHT22;44257;44.804;10.220;2023-12-14T03:14:31;7.30;99.90
58469;DHT22;44257;44.804;10.220;2023-12-14T03:16:59;7.30;99.90
58469;DHT22;44257;44.804;10.220;2023-12-14T03:19:24;7.30;99.90
58469;DHT22;44257;44.804;10.220;2023-12-14T03:21:50;7.30;99.90
58469;DHT22;44257;44.804;10.220;2023-12-14T03:24:16;7.30;99.90
58469;DHT22;44257;44.804;10.220;2023-12-14T03:26:42;7.20;99.90
58469;DHT22;44257;44.804;10.220;2023-12-14T03:29:08;7.20;99.90
58469;DHT22;44257;44.804;10.220;2023-12-14T03:31:34;7.20;99.90
58469;DHT22;44257;44.804;10.220;2023-12-14T03:34:01;7.20;99.90
58469;DHT22;44257;44.804;10.220;2023-12-14T03:36:27;7.20;99.90
58469;DHT22;44257;44.804;10.220;2023-12-14T03:38:53;7.20;99.90
58469;DHT22;44257;44.804;10.220;2023-12-14T03:41:19;7.20;99.90
58469;DHT22;44257;44.804;10.220;2023-12-14T03:43:45;7.20;99.90
58469;DHT22;44257;44.804;10.220;2023-12-14T03:46:11;7.20;99.90
58469;DHT22;44257;44.804;10.220;2023-12-14T03:48:37;7.20;99.90
58469;DHT22;44257;44.804;10.220;2023-12-14T03:51:04;7.20;99.90
58469;DHT22;44257;44.804;10.220;2023-12-14T03:53:30;7.20;99.90
58469;DHT22;44257;44.804;10.220;2023-12-14T03:55:58;7.20;99.90
58469;DHT22;44257;44.804;10.220;2023-12-14T03:58:24;7.20;99.90
58469;DHT22;44257;44.804;10.220;2023-12-14T04:00:49;7.20;99.90
58469;DHT22;44257;44.804;10.220;2023-12-14T04:03:15;7.20;99.90
58469;DHT22;44257;44.804;10.220;2023-12-14T04:05:41;7.20;99.90
58469;DHT22;44257;44.804;10.220;2023-12-14T04:08:07;7.20;99.90
58469;DHT22;44257;44.804;10.220;2023-12-14T04:10:33;7.30;99.90
58469;DHT22;44257;44.804;10.220;2023-12-14T04:12:59;7.30;99.90
58469;DHT22;44257;44.804;10.220;2023-12-14T04:15:25;7.30;99.90
58469;DHT22;44257;44.804;10.220;2023-12-14T04:17:50;7.30;99.90
58469;DHT22;44257;44.804;10.220;2023-12-14T04:20:16;7.40;99.90
58469;DHT22;44257;44.804;10.220;2023-12-14T04:22:45;7.40;99.90
58469;DHT22;44257;44.804;10.220;2023-12-14T04:25:11;7.40;99.90
58469;DHT22;44257;44.804;10.220;2023-12-14T04:27:37;7.50;99.90
58469;DHT22;44257;44.804;10.220;2023-12-14T04:30:04;7.40;99.90
58469;DHT22;44257;44.804;10.220;2023-12-14T04:32:30;7.40;99.90
58469;DHT22;44257;44.804;10.220;2023-12-14T04:34:56;7.40;99.90
58469;DHT22;44257;44.804;10.220;2023-12-14T04:37:22;7.50;99.90
58469;DHT22;44257;44.804;10.220;2023-12-14T04:39:48;7.50;99.90
58469;DHT22;44257;44.804;10.220;2023-12-14T04:42:13;7.50;99.90
58469;DHT22;44257;44.804;10.220;2023-12-14T04:44:39;7.50;99.90
58469;DHT22;44257;44.804;10.220;2023-12-14T04:47:05;7.50;99.90
58469;DHT22;44257;44.804;10.220;2023-12-14T04:49:31;7.50;99.90
58469;DHT22;44257;44.804;10.220;2023-12-14T04:51:57;7.50;99.90
58469;DHT22;44257;44.804;10.220;2023-12-14T04:54:23;7.50;99.90
58469;DHT22;44257;44.804;10.220;2023-12-14T04:56:49;7.50;99.90
58469;DHT22;44257;44.804;10.220;2023-12-14T04:59:14;7.50;99.90
58469;DHT22;44257;44.804;10.220;2023-12-14T05:01:40;7.50;99.90
58469;DHT22;44257;44.804;10.220;2023-12-14T05:04:06;7.50;99.90
58469;DHT22;44257;44.804;10.220;2023-12-14T05:06:32;7.60;99.90
58469;DHT22;44257;44.804;10.220;2023-12-14T05:08:59;7.60;99.90
58469;DHT22;44257;44.804;10.220;2023-12-14T05:11:28;7.60;99.90
58469;DHT22;44257;44.804;10.220;2023-12-14T05:13:54;7.60;99.90
58469;DHT22;44257;44.804;10.220;2023-12-14T05:16:20;7.60;99.90
58469;DHT22;44257;44.804;10.220;2023-12-14T05:18:45;7.60;99.90
58469;DHT22;44257;44.804;10.220;2023-12-14T05:21:17;7.50;99.90
58469;DHT22;44257;44.804;10.220;2023-12-14T05:23:43;7.60;99.90
58469;DHT22;44257;44.804;10.220;2023-12-14T05:26:09;7.60;99.90
58469;DHT22;44257;44.804;10.220;2023-12-14T05:28:34;7.60;99.90
58469;DHT22;44257;44.804;10.220;2023-12-14T05:31:00;7.60;99.90
58469;DHT22;44257;44.804;10.220;2023-12-14T05:33:26;7.60;99.90
58469;DHT22;44257;44.804;10.220;2023-12-14T05:35:52;7.60;99.90
58469;DHT22;44257;44.804;10.220;2023-12-14T05:38:19;7.60;99.90
58469;DHT22;44257;44.804;10.220;2023-12-14T05:40:45;7.60;99.90
58469;DHT22;44257;44.804;10.220;2023-12-14T05:43:11;7.60;99.90
58469;DHT22;44257;44.804;10.220;2023-12-14T05:45:37;7.60;99.90
58469;DHT22;44257;44.804;10.220;2023-12-14T05:48:03;7.60;99.90
58469;DHT22;44257;44.804;10.220;2023-12-14T05:50:31;7.60;99.90
58469;DHT22;44257;44.804;10.220;2023-12-14T05:52:57;7.60;99.90
58469;DHT22;44257;44.804;10.220;2023-12-14T05:55:22;7.60;99.90
58469;DHT22;44257;44.804;10.220;2023-12-14T05:57:49;7.60;99.90
58469;DHT22;44257;44.804;10.220;2023-12-14T06:00:15;7.60;99.90
58469;DHT22;44257;44.804;10.220;2023-12-14T06:02:41;7.70;99.90
58469;DHT22;44257;44.804;10.220;2023-12-14T06:05:08;7.60;99.90
58469;DHT22;44257;44.804;10.220;2023-12-14T06:07:34;7.60;99.90
58469;DHT22;44257;44.804;10.220;2023-12-14T06:09:59;7.60;99.90
58469;DHT22;44257;44.804;10.220;2023-12-14T06:12:27;7.60;99.90
58469;DHT22;44257;44.804;10.220;2023-12-14T06:14:52;7.60;99.90
58469;DHT22;44257;44.804;10.220;2023-12-14T06:17:19;7.70;99.90
58469;DHT22;44257;44.804;10.220;2023-12-14T06:19:44;7.70;99.90
58469;DHT22;44257;44.804;10.220;2023-12-14T06:22:10;7.70;99.90
58469;DHT22;44257;44.804;10.220;2023-12-14T06:24:36;7.70;99.90
58469;DHT22;44257;44.804;10.220;2023-12-14T06:27:02;7.70;99.90
58469;DHT22;44257;44.804;10.220;2023-12-14T06:29:29;7.70;99.90
58469;DHT22;44257;44.804;10.220;2023-12-14T06:31:55;7.70;99.90
58469;DHT22;44257;44.804;10.220;2023-12-14T06:34:21;7.70;99.90
58469;DHT22;44257;44.804;10.220;2023-12-14T06:36:47;7.70;99.90
58469;DHT22;44257;44.804;10.220;2023-12-14T06:39:12;7.70;99.90
58469;DHT22;44257;44.804;10.220;2023-12-14T06:41:38;7.70;99.90
58469;DHT22;44257;44.804;10.220;2023-12-14T06:44:05;7.70;99.90
58469;DHT22;44257;44.804;10.220;2023-12-14T06:46:31;7.70;99.90
58469;DHT22;44257;44.804;10.220;2023-12-14T06:48:56;7.70;99.90
58469;DHT22;44257;44.804;10.220;2023-12-14T06:51:24;7.70;99.90
58469;DHT22;44257;44.804;10.220;2023-12-14T06:53:50;7.70;99.90
58469;DHT22;44257;44.804;10.220;2023-12-14T06:56:15;7.70;99.90
58469;DHT22;44257;44.804;10.220;2023-12-14T06:58:43;7.70;99.90
58469;DHT22;44257;44.804;10.220;2023-12-14T07:01:16;7.70;99.90
58469;DHT22;44257;44.804;10.220;2023-12-14T07:03:44;7.70;99.90
58469;DHT22;44257;44.804;10.220;2023-12-14T07:06:14;7.70;99.90
58469;DHT22;44257;44.804;10.220;2023-12-14T07:08:41;7.70;99.90
58469;DHT22;44257;44.804;10.220;2023-12-14T07:11:11;7.70;99.90
58469;DHT22;44257;44.804;10.220;2023-12-14T07:13:37;7.80;99.90
58469;DHT22;44257;44.804;10.220;2023-12-14T07:16:09;7.80;99.90
58469;DHT22;44257;44.804;10.220;2023-12-14T07:18:36;7.80;99.90
58469;DHT22;44257;44.804;10.220;2023-12-14T07:21:02;7.80;99.90
58469;DHT22;44257;44.804;10.220;2023-12-14T07:23:29;7.80;99.90
58469;DHT22;44257;44.804;10.220;2023-12-14T07:25:54;7.80;99.90
58469;DHT22;44257;44.804;10.220;2023-12-14T07:28:21;7.80;99.90
58469;DHT22;44257;44.804;10.220;2023-12-14T07:30:47;7.80;99.90
58469;DHT22;44257;44.804;10.220;2023-12-14T07:33:14;7.80;99.90
58469;DHT22;44257;44.804;10.220;2023-12-14T07:35:41;7.80;99.90
58469;DHT22;44257;44.804;10.220;2023-12-14T07:38:06;7.80;99.90
58469;DHT22;44257;44.804;10.220;2023-12-14T07:40:32;7.80;99.90
58469;DHT22;44257;44.804;10.220;2023-12-14T07:42:58;7.80;99.90
58469;DHT22;44257;44.804;10.220;2023-12-14T07:45:25;7.80;99.90
58469;DHT22;44257;44.804;10.220;2023-12-14T07:47:51;7.90;99.90
58469;DHT22;44257;44.804;10.220;2023-12-14T07:50:17;7.90;99.90
58469;DHT22;44257;44.804;10.220;2023-12-14T07:52:43;7.90;99.90
58469;DHT22;44257;44.804;10.220;2023-12-14T07:55:09;7.90;99.90
58469;DHT22;44257;44.804;10.220;2023-12-14T07:57:35;8.00;99.90
58469;DHT22;44257;44.804;10.220;2023-12-14T08:00:01;8.00;99.90
58469;DHT22;44257;44.804;10.220;2023-12-14T08:02:26;8.10;99.90
58469;DHT22;44257;44.804;10.220;2023-12-14T08:04:52;8.10;99.90
58469;DHT22;44257;44.804;10.220;2023-12-14T08:07:18;8.20;99.90
58469;DHT22;44257;44.804;10.220;2023-12-14T08:09:44;8.20;99.90
58469;DHT22;44257;44.804;10.220;2023-12-14T08:12:10;8.20;99.90
58469;DHT22;44257;44.804;10.220;2023-12-14T08:14:35;8.20;99.90
58469;DHT22;44257;44.804;10.220;2023-12-14T08:17:04;8.30;99.90
58469;DHT22;44257;44.804;10.220;2023-12-14T08:19:30;8.30;99.90
58469;DHT22;44257;44.804;10.220;2023-12-14T08:21:56;8.30;99.90
58469;DHT22;44257;44.804;10.220;2023-12-14T08:24:22;8.40;99.90
58469;DHT22;44257;44.804;10.220;2023-12-14T08:26:48;8.40;99.90
58469;DHT22;44257;44.804;10.220;2023-12-14T08:29:14;8.40;99.90
58469;DHT22;44257;44.804;10.220;2023-12-14T08:31:40;8.40;99.90
58469;DHT22;44257;44.804;10.220;2023-12-14T08:34:06;8.50;99.90
58469;DHT22;44257;44.804;10.220;2023-12-14T08:36:31;8.50;99.90
58469;DHT22;44257;44.804;10.220;2023-12-14T08:38:58;8.60;99.90
58469;DHT22;44257;44.804;10.220;2023-12-14T08:41:24;8.60;99.90
58469;DHT22;44257;44.804;10.220;2023-12-14T08:43:50;8.70;99.90
58469;DHT22;44257;44.804;10.220;2023-12-14T08:46:15;8.70;99.90
58469;DHT22;44257;44.804;10.220;2023-12-14T08:48:41;8.90;99.90
58469;DHT22;44257;44.804;10.220;2023-12-14T08:51:07;8.90;99.90
58469;DHT22;44257;44.804;10.220;2023-12-14T08:53:33;9.00;99.90
58469;DHT22;44257;44.804;10.220;2023-12-14T08:55:59;9.10;99.90
58469;DHT22;44257;44.804;10.220;2023-12-14T08:58:25;9.10;99.90
58469;DHT22;44257;44.804;10.220;2023-12-14T09:00:51;9.20;99.90
58469;DHT22;44257;44.804;10.220;2023-12-14T09:03:21;9.30;99.90
58469;DHT22;44257;44.804;10.220;2023-12-14T09:05:47;9.50;99.90
58469;DHT22;44257;44.804;10.220;2023-12-14T09:08:13;9.50;99.90
58469;DHT22;44257;44.804;10.220;2023-12-14T09:10:39;9.60;99.90
58469;DHT22;44257;44.804;10.220;2023-12-14T09:13:05;9.70;99.90
58469;DHT22;44257;44.804;10.220;2023-12-14T09:15:32;9.70;99.90
58469;DHT22;44257;44.804;10.220;2023-12-14T09:17:58;9.80;99.90
58469;DHT22;44257;44.804;10.220;2023-12-14T09:20:23;9.70;99.90
58469;DHT22;44257;44.804;10.220;2023-12-14T09:22:49;9.80;99.90
58469;DHT22;44257;44.804;10.220;2023-12-14T09:25:16;9.80;99.90
58469;DHT22;44257;44.804;10.220;2023-12-14T09:27:42;9.70;99.90
58469;DHT22;44257;44.804;10.220;2023-12-14T09:30:08;9.80;99.90
58469;DHT22;44257;44.804;10.220;2023-12-14T09:32:34;9.80;99.90
58469;DHT22;44257;44.804;10.220;2023-12-14T09:35:00;9.90;99.90
58469;DHT22;44257;44.804;10.220;2023-12-14T09:37:26;9.90;99.90
58469;DHT22;44257;44.804;10.220;2023-12-14T09:39:52;10.00;99.90
58469;DHT22;44257;44.804;10.220;2023-12-14T09:42:19;10.00;99.90
58469;DHT22;44257;44.804;10.220;2023-12-14T09:44:47;10.10;99.90
58469;DHT22;44257;44.804;10.220;2023-12-14T09:47:14;10.10;99.90
58469;DHT22;44257;44.804;10.220;2023-12-14T09:49:41;10.10;99.90
58469;DHT22;44257;44.804;10.220;2023-12-14T09:52:09;10.10;99.90
58469;DHT22;44257;44.804;10.220;2023-12-14T09:54:35;10.10;99.90
58469;DHT22;44257;44.804;10.220;2023-12-14T09:57:01;10.10;99.90
58469;DHT22;44257;44.804;10.220;2023-12-14T09:59:27;10.10;99.90
58469;DHT22;44257;44.804;10.220;2023-12-14T10:01:53;10.00;99.90
58469;DHT22;44257;44.804;10.220;2023-12-14T10:04:25;10.00;99.90
58469;DHT22;44257;44.804;10.220;2023-12-14T10:06:51;9.90;99.90
58469;DHT22;44257;44.804;10.220;2023-12-14T10:09:23;9.90;99.90
58469;DHT22;44257;44.804;10.220;2023-12-14T10:12:05;9.90;99.90
58469;DHT22;44257;44.804;10.220;2023-12-14T10:14:31;10.00;99.90
58469;DHT22;44257;44.804;10.220;2023-12-14T10:16:59;10.10;99.90
58469;DHT22;44257;44.804;10.220;2023-12-14T10:19:42;10.30;99.90
58469;DHT22;44257;44.804;10.220;2023-12-14T10:22:09;10.40;99.90
58469;DHT22;44257;44.804;10.220;2023-12-14T10:24:35;10.40;99.90
58469;DHT22;44257;44.804;10.220;2023-12-14T10:27:07;10.50;99.90
58469;DHT22;44257;44.804;10.220;2023-12-14T10:29:34;10.60;99.90
58469;DHT22;44257;44.804;10.220;2023-12-14T10:32:03;10.70;99.90
58469;DHT22;44257;44.804;10.220;2023-12-14T10:34:33;10.80;99.90
58469;DHT22;44257;44.804;10.220;2023-12-14T10:37:00;10.90;99.90
58469;DHT22;44257;44.804;10.220;2023-12-14T10:39:26;11.00;99.90
58469;DHT22;44257;44.804;10.220;2023-12-14T10:41:54;11.10;99.90
58469;DHT22;44257;44.804;10.220;2023-12-14T10:44:26;11.30;99.90
58469;DHT22;44257;44.804;10.220;2023-12-14T10:46:58;11.30;99.90
58469;DHT22;44257;44.804;10.220;2023-12-14T10:49:25;11.30;99.90
58469;DHT22;44257;44.804;10.220;2023-12-14T10:51:53;11.20;99.90
58469;DHT22;44257;44.804;10.220;2023-12-14T10:54:21;11.10;99.90
58469;DHT22;44257;44.804;10.220;2023-12-14T10:56:48;11.00;99.90
58469;DHT22;44257;44.804;10.220;2023-12-14T10:59:17;11.00;99.90
58469;DHT22;44257;44.804;10.220;2023-12-14T11:01:43;11.10;99.90
58469;DHT22;44257;44.804;10.220;2023-12-14T11:04:10;11.20;99.90
58469;DHT22;44257;44.804;10.220;2023-12-14T11:06:40;11.30;99.90
58469;DHT22;44257;44.804;10.220;2023-12-14T11:09:08;11.30;99.90
58469;DHT22;44257;44.804;10.220;2023-12-14T11:11:47;11.30;99.90
58469;DHT22;44257;44.804;10.220;2023-12-14T11:14:24;11.40;99.90
58469;DHT22;44257;44.804;10.220;2023-12-14T11:16:54;11.30;99.90
58469;DHT22;44257;44.804;10.220;2023-12-14T11:22:09;11.30;99.90
58469;DHT22;44257;44.804;10.220;2023-12-14T11:24:36;11.30;99.90
58469;DHT22;44257;44.804;10.220;2023-12-14T11:27:08;11.20;99.90
58469;DHT22;44257;44.804;10.220;2023-12-14T11:29:38;11.30;99.90
58469;DHT22;44257;44.804;10.220;2023-12-14T11:32:07;11.30;99.90
58469;DHT22;44257;44.804;10.220;2023-12-14T11:34:33;11.40;99.90
58469;DHT22;44257;44.804;10.220;2023-12-14T11:36:59;11.40;99.90
58469;DHT22;44257;44.804;10.220;2023-12-14T11:39:30;11.30;99.90
58469;DHT22;44257;44.804;10.220;2023-12-14T11:42:02;11.30;99.90
58469;DHT22;44257;44.804;10.220;2023-12-14T11:44:28;11.30;99.90
58469;DHT22;44257;44.804;10.220;2023-12-14T11:46:55;11.20;99.90
58469;DHT22;44257;44.804;10.220;2023-12-14T11:49:20;11.20;99.90
58469;DHT22;44257;44.804;10.220;2023-12-14T11:51:47;11.20;99.90
58469;DHT22;44257;44.804;10.220;2023-12-14T11:54:13;11.30;99.90
58469;DHT22;44257;44.804;10.220;2023-12-14T11:56:45;11.40;99.90
58469;DHT22;44257;44.804;10.220;2023-12-14T11:59:11;11.50;99.90
58469;DHT22;44257;44.804;10.220;2023-12-14T12:01:37;11.60;99.90
58469;DHT22;44257;44.804;10.220;2023-12-14T12:04:09;11.60;99.90
58469;DHT22;44257;44.804;10.220;2023-12-14T12:06:36;11.50;99.90
58469;DHT22;44257;44.804;10.220;2023-12-14T12:09:02;11.50;99.90
58469;DHT22;44257;44.804;10.220;2023-12-14T12:11:33;11.50;99.90
58469;DHT22;44257;44.804;10.220;2023-12-14T12:13:59;11.30;99.90
58469;DHT22;44257;44.804;10.220;2023-12-14T12:16:25;11.20;99.90
58469;DHT22;44257;44.804;10.220;2023-12-14T12:18:51;11.20;99.90
58469;DHT22;44257;44.804;10.220;2023-12-14T12:21:17;11.10;99.90
58469;DHT22;44257;44.804;10.220;2023-12-14T12:23:43;11.00;99.90
58469;DHT22;44257;44.804;10.220;2023-12-14T12:26:09;10.90;99.90
58469;DHT22;44257;44.804;10.220;2023-12-14T12:28:35;10.90;99.90
58469;DHT22;44257;44.804;10.220;2023-12-14T12:31:02;10.80;99.90
58469;DHT22;44257;44.804;10.220;2023-12-14T12:33:28;10.90;99.90
58469;DHT22;44257;44.804;10.220;2023-12-14T12:35:55;10.90;99.90
58469;DHT22;44257;44.804;10.220;2023-12-14T12:38:21;11.00;99.90
58469;DHT22;44257;44.804;10.220;2023-12-14T12:40:47;11.10;99.90
58469;DHT22;44257;44.804;10.220;2023-12-14T12:43:13;11.10;99.90
58469;DHT22;44257;44.804;10.220;2023-12-14T12:45:42;11.10;99.90
58469;DHT22;44257;44.804;10.220;2023-12-14T12:48:08;11.20;99.90
58469;DHT22;44257;44.804;10.220;2023-12-14T12:50:37;11.10;99.90
58469;DHT22;44257;44.804;10.220;2023-12-14T12:53:02;11.00;99.90
58469;DHT22;44257;44.804;10.220;2023-12-14T12:55:28;10.90;99.90
58469;DHT22;44257;44.804;10.220;2023-12-14T12:57:54;10.70;99.90
58469;DHT22;44257;44.804;10.220;2023-12-14T13:00:20;10.60;99.90
58469;DHT22;44257;44.804;10.220;2023-12-14T13:02:46;10.50;99.90
58469;DHT22;44257;44.804;10.220;2023-12-14T13:05:12;10.40;99.90
58469;DHT22;44257;44.804;10.220;2023-12-14T13:07:38;10.30;99.90
58469;DHT22;44257;44.804;10.220;2023-12-14T13:10:05;10.30;99.90
58469;DHT22;44257;44.804;10.220;2023-12-14T13:12:32;10.30;99.90
58469;DHT22;44257;44.804;10.220;2023-12-14T13:14:59;10.30;99.90
58469;DHT22;44257;44.804;10.220;2023-12-14T13:17:25;10.30;99.90
58469;DHT22;44257;44.804;10.220;2023-12-14T13:19:51;10.40;99.90
58469;DHT22;44257;44.804;10.220;2023-12-14T13:22:18;10.50;99.90
58469;DHT22;44257;44.804;10.220;2023-12-14T13:24:45;10.60;99.90
58469;DHT22;44257;44.804;10.220;2023-12-14T13:27:11;10.70;99.90
58469;DHT22;44257;44.804;10.220;2023-12-14T13:29:37;10.70;99.90
58469;DHT22;44257;44.804;10.220;2023-12-14T13:32:03;10.80;99.90
58469;DHT22;44257;44.804;10.220;2023-12-14T13:34:29;10.80;99.90
58469;DHT22;44257;44.804;10.220;2023-12-14T13:36:56;10.80;99.90
58469;DHT22;44257;44.804;10.220;2023-12-14T13:39:22;10.80;99.90
58469;DHT22;44257;44.804;10.220;2023-12-14T13:41:48;10.70;99.90
58469;DHT22;44257;44.804;10.220;2023-12-14T13:44:14;10.80;99.90
58469;DHT22;44257;44.804;10.220;2023-12-14T13:46:40;10.80;99.90
58469;DHT22;44257;44.804;10.220;2023-12-14T13:49:06;10.90;99.90
58469;DHT22;44257;44.804;10.220;2023-12-14T13:51:32;10.90;99.90
58469;DHT22;44257;44.804;10.220;2023-12-14T13:53:58;11.00;99.90
58469;DHT22;44257;44.804;10.220;2023-12-14T13:56:24;11.10;99.90
58469;DHT22;44257;44.804;10.220;2023-12-14T13:58:50;11.10;99.90
58469;DHT22;44257;44.804;10.220;2023-12-14T14:01:16;11.00;99.90
58469;DHT22;44257;44.804;10.220;2023-12-14T14:03:42;11.00;99.90
58469;DHT22;44257;44.804;10.220;2023-12-14T14:06:08;10.90;99.90
58469;DHT22;44257;44.804;10.220;2023-12-14T14:08:34;10.90;99.90
58469;DHT22;44257;44.804;10.220;2023-12-14T14:11:01;10.90;99.90
58469;DHT22;44257;44.804;10.220;2023-12-14T14:13:28;10.90;99.90
58469;DHT22;44257;44.804;10.220;2023-12-14T14:15:54;10.80;99.90
58469;DHT22;44257;44.804;10.220;2023-12-14T14:18:20;10.70;99.90
58469;DHT22;44257;44.804;10.220;2023-12-14T14:20:46;10.70;99.90
58469;DHT22;44257;44.804;10.220;2023-12-14T14:23:12;10.60;99.90
58469;DHT22;44257;44.804;10.220;2023-12-14T14:25:38;10.50;99.90
58469;DHT22;44257;44.804;10.220;2023-12-14T14:28:04;10.50;99.90
58469;DHT22;44257;44.804;10.220;2023-12-14T14:30:30;10.40;99.90
58469;DHT22;44257;44.804;10.220;2023-12-14T14:32:56;10.30;99.90
58469;DHT22;44257;44.804;10.220;2023-12-14T14:35:22;10.20;99.90
58469;DHT22;44257;44.804;10.220;2023-12-14T14:37:51;10.20;99.90
58469;DHT22;44257;44.804;10.220;2023-12-14T14:40:17;10.10;99.90
58469;DHT22;44257;44.804;10.220;2023-12-14T14:42:43;10.00;99.90
58469;DHT22;44257;44.804;10.220;2023-12-14T14:45:10;10.00;99.90
58469;DHT22;44257;44.804;10.220;2023-12-14T14:47:36;9.90;99.90
58469;DHT22;44257;44.804;10.220;2023-12-14T14:50:03;9.80;99.90
58469;DHT22;44257;44.804;10.220;2023-12-14T14:52:30;9.80;99.90
58469;DHT22;44257;44.804;10.220;2023-12-14T14:54:57;9.70;99.90
58469;DHT22;44257;44.804;10.220;2023-12-14T14:57:23;9.60;99.90
58469;DHT22;44257;44.804;10.220;2023-12-14T14:59:51;9.50;99.90
58469;DHT22;44257;44.804;10.220;2023-12-14T15:02:17;9.40;99.90
58469;DHT22;44257;44.804;10.220;2023-12-14T15:04:43;9.30;99.90
58469;DHT22;44257;44.804;10.220;2023-12-14T15:07:08;9.20;99.90
58469;DHT22;44257;44.804;10.220;2023-12-14T15:09:34;9.10;99.90
58469;DHT22;44257;44.804;10.220;2023-12-14T15:12:00;8.90;99.90
58469;DHT22;44257;44.804;10.220;2023-12-14T15:14:26;8.80;99.90
58469;DHT22;44257;44.804;10.220;2023-12-14T15:16:55;8.70;99.90
58469;DHT22;44257;44.804;10.220;2023-12-14T15:19:21;8.70;99.90
58469;DHT22;44257;44.804;10.220;2023-12-14T15:21:47;8.60;99.90
58469;DHT22;44257;44.804;10.220;2023-12-14T15:24:13;8.50;99.90
58469;DHT22;44257;44.804;10.220;2023-12-14T15:26:41;8.40;99.90